sensor_id;sensor_type;location;lat;lon;timestamp;P1;durP1;ratioP1;P2;durP2;ratioP2
1128;SDS011;553;51.038;7.216;2023-07-20T00:00:03;6.10;;;4.07;;
1128;SDS011;553;51.038;7.216;2023-07-20T00:02:38;5.43;;;3.40;;
1128;SDS011;553;51.038;7.216;2023-07-20T00:05:05;8.43;;;3.50;;
1128;SDS011;553;51.038;7.216;2023-07-20T00:07:32;7.17;;;3.93;;
1128;SDS011;553;51.038;7.216;2023-07-20T00:09:59;5.53;;;4.10;;
1128;SDS011;553;51.038;7.216;2023-07-20T00:12:26;5.13;;;3.53;;
1128;SDS011;553;51.038;7.216;2023-07-20T00:14:52;7.67;;;3.57;;
1128;SDS011;553;51.038;7.216;2023-07-20T00:17:20;6.37;;;3.40;;
1128;SDS011;553;51.038;7.216;2023-07-20T00:19:46;6.13;;;3.90;;
1128;SDS011;553;51.038;7.216;2023-07-20T00:22:13;5.40;;;3.17;;
1128;SDS011;553;51.038;7.216;2023-07-20T00:24:40;6.47;;;3.43;;
1128;SDS011;553;51.038;7.216;2023-07-20T00:27:07;5.53;;;3.70;;
1128;SDS011;553;51.038;7.216;2023-07-20T00:29:34;7.03;;;3.60;;
1128;SDS011;553;51.038;7.216;2023-07-20T00:32:01;7.33;;;4.07;;
1128;SDS011;553;51.038;7.216;2023-07-20T00:34:31;6.90;;;3.80;;
1128;SDS011;553;51.038;7.216;2023-07-20T00:36:58;7.10;;;3.80;;
1128;SDS011;553;51.038;7.216;2023-07-20T00:39:24;7.23;;;4.10;;
1128;SDS011;553;51.038;7.216;2023-07-20T00:41:51;6.40;;;4.37;;
1128;SDS011;553;51.038;7.216;2023-07-20T00:44:18;7.97;;;4.27;;
1128;SDS011;553;51.038;7.216;2023-07-20T00:46:45;7.37;;;4.60;;
1128;SDS011;553;51.038;7.216;2023-07-20T00:49:12;10.10;;;4.50;;
1128;SDS011;553;51.038;7.216;2023-07-20T00:51:40;5.20;;;4.00;;
1128;SDS011;553;51.038;7.216;2023-07-20T00:54:07;5.97;;;3.57;;
1128;SDS011;553;51.038;7.216;2023-07-20T00:56:35;5.90;;;4.40;;
1128;SDS011;553;51.038;7.216;2023-07-20T00:59:04;6.73;;;4.33;;
1128;SDS011;553;51.038;7.216;2023-07-20T01:01:31;8.37;;;4.60;;
1128;SDS011;553;51.038;7.216;2023-07-20T01:03:58;8.93;;;5.00;;
1128;SDS011;553;51.038;7.216;2023-07-20T01:11:35;8.97;;;4.73;;
1128;SDS011;553;51.038;7.216;2023-07-20T01:14:06;5.93;;;4.17;;
1128;SDS011;553;51.038;7.216;2023-07-20T01:16:33;7.23;;;5.00;;
1128;SDS011;553;51.038;7.216;2023-07-20T01:19:00;5.83;;;4.63;;
1128;SDS011;553;51.038;7.216;2023-07-20T01:29:43;7.07;;;4.40;;
1128;SDS011;553;51.038;7.216;2023-07-20T01:32:26;7.40;;;4.90;;
1128;SDS011;553;51.038;7.216;2023-07-20T01:34:54;6.10;;;4.83;;
1128;SDS011;553;51.038;7.216;2023-07-20T01:37:23;7.20;;;5.33;;
1128;SDS011;553;51.038;7.216;2023-07-20T01:39:54;7.53;;;5.27;;
1128;SDS011;553;51.038;7.216;2023-07-20T01:42:22;9.40;;;5.53;;
1128;SDS011;553;51.038;7.216;2023-07-20T01:44:50;8.10;;;5.40;;
1128;SDS011;553;51.038;7.216;2023-07-20T01:47:19;7.73;;;5.40;;
1128;SDS011;553;51.038;7.216;2023-07-20T01:49:46;10.10;;;4.90;;
1128;SDS011;553;51.038;7.216;2023-07-20T01:52:12;8.63;;;5.40;;
1128;SDS011;553;51.038;7.216;2023-07-20T01:54:39;7.67;;;5.30;;
1128;SDS011;553;51.038;7.216;2023-07-20T01:57:06;8.10;;;4.80;;
1128;SDS011;553;51.038;7.216;2023-07-20T01:59:32;8.27;;;5.70;;
1128;SDS011;553;51.038;7.216;2023-07-20T02:01:59;7.67;;;4.60;;
1128;SDS011;553;51.038;7.216;2023-07-20T02:04:26;8.73;;;5.23;;
1128;SDS011;553;51.038;7.216;2023-07-20T02:06:53;9.00;;;4.90;;
1128;SDS011;553;51.038;7.216;2023-07-20T02:09:19;7.23;;;4.70;;
1128;SDS011;553;51.038;7.216;2023-07-20T02:11:46;8.90;;;5.57;;
1128;SDS011;553;51.038;7.216;2023-07-20T02:14:13;10.07;;;5.40;;
1128;SDS011;553;51.038;7.216;2023-07-20T02:16:40;9.40;;;5.90;;
1128;SDS011;553;51.038;7.216;2023-07-20T02:19:07;8.30;;;5.57;;
1128;SDS011;553;51.038;7.216;2023-07-20T02:21:34;7.20;;;5.17;;
1128;SDS011;553;51.038;7.216;2023-07-20T02:24:01;8.90;;;5.90;;
1128;SDS011;553;51.038;7.216;2023-07-20T02:26:27;8.70;;;5.77;;
1128;SDS011;553;51.038;7.216;2023-07-20T02:28:54;7.57;;;5.00;;
1128;SDS011;553;51.038;7.216;2023-07-20T02:31:21;6.27;;;5.07;;
1128;SDS011;553;51.038;7.216;2023-07-20T02:33:48;6.93;;;5.73;;
1128;SDS011;553;51.038;7.216;2023-07-20T02:36:15;6.63;;;5.33;;
1128;SDS011;553;51.038;7.216;2023-07-20T02:38:44;8.77;;;4.80;;
1128;SDS011;553;51.038;7.216;2023-07-20T02:41:12;8.17;;;5.50;;
1128;SDS011;553;51.038;7.216;2023-07-20T02:43:39;9.00;;;5.50;;
1128;SDS011;553;51.038;7.216;2023-07-20T02:46:06;6.63;;;4.73;;
1128;SDS011;553;51.038;7.216;2023-07-20T02:48:33;6.03;;;4.50;;
1128;SDS011;553;51.038;7.216;2023-07-20T02:51:00;5.97;;;5.30;;
1128;SDS011;553;51.038;7.216;2023-07-20T02:53:26;9.90;;;4.93;;
1128;SDS011;553;51.038;7.216;2023-07-20T02:55:53;6.93;;;4.60;;
1128;SDS011;553;51.038;7.216;2023-07-20T02:58:20;6.63;;;4.40;;
1128;SDS011;553;51.038;7.216;2023-07-20T03:00:47;7.90;;;4.73;;
1128;SDS011;553;51.038;7.216;2023-07-20T03:03:13;8.03;;;5.20;;
1128;SDS011;553;51.038;7.216;2023-07-20T03:05:41;7.60;;;4.40;;
1128;SDS011;553;51.038;7.216;2023-07-20T03:08:08;5.73;;;4.73;;
1128;SDS011;553;51.038;7.216;2023-07-20T03:10:38;5.97;;;4.90;;
1128;SDS011;553;51.038;7.216;2023-07-20T03:13:07;6.00;;;4.80;;
1128;SDS011;553;51.038;7.216;2023-07-20T03:15:34;7.03;;;5.20;;
1128;SDS011;553;51.038;7.216;2023-07-20T03:18:00;6.17;;;5.23;;
1128;SDS011;553;51.038;7.216;2023-07-20T03:20:28;7.90;;;4.83;;
1128;SDS011;553;51.038;7.216;2023-07-20T03:22:54;8.27;;;5.20;;
1128;SDS011;553;51.038;7.216;2023-07-20T03:25:21;6.73;;;4.87;;
1128;SDS011;553;51.038;7.216;2023-07-20T03:27:50;7.57;;;5.40;;
1128;SDS011;553;51.038;7.216;2023-07-20T03:30:17;7.00;;;5.57;;
1128;SDS011;553;51.038;7.216;2023-07-20T03:32:44;7.93;;;5.60;;
1128;SDS011;553;51.038;7.216;2023-07-20T03:35:11;6.80;;;5.37;;
1128;SDS011;553;51.038;7.216;2023-07-20T03:37:37;8.50;;;5.90;;
1128;SDS011;553;51.038;7.216;2023-07-20T03:40:04;7.20;;;5.60;;
1128;SDS011;553;51.038;7.216;2023-07-20T03:42:33;5.80;;;4.77;;
1128;SDS011;553;51.038;7.216;2023-07-20T03:45:00;7.83;;;5.90;;
1128;SDS011;553;51.038;7.216;2023-07-20T03:47:27;7.57;;;5.97;;
1128;SDS011;553;51.038;7.216;2023-07-20T03:49:54;12.00;;;6.50;;
1128;SDS011;553;51.038;7.216;2023-07-20T03:52:20;11.53;;;6.73;;
1128;SDS011;553;51.038;7.216;2023-07-20T03:54:47;7.23;;;5.17;;
1128;SDS011;553;51.038;7.216;2023-07-20T03:57:14;8.50;;;6.90;;
1128;SDS011;553;51.038;7.216;2023-07-20T03:59:44;7.80;;;6.30;;
1128;SDS011;553;51.038;7.216;2023-07-20T04:02:11;9.73;;;6.20;;
1128;SDS011;553;51.038;7.216;2023-07-20T04:04:41;14.33;;;6.60;;
1128;SDS011;553;51.038;7.216;2023-07-20T04:07:08;8.00;;;6.00;;
1128;SDS011;553;51.038;7.216;2023-07-20T04:09:34;8.30;;;6.50;;
1128;SDS011;553;51.038;7.216;2023-07-20T04:12:01;11.10;;;6.57;;
1128;SDS011;553;51.038;7.216;2023-07-20T04:14:28;6.43;;;5.73;;
1128;SDS011;553;51.038;7.216;2023-07-20T04:16:55;8.53;;;6.20;;
1128;SDS011;553;51.038;7.216;2023-07-20T04:19:22;8.90;;;5.97;;
1128;SDS011;553;51.038;7.216;2023-07-20T04:21:48;9.40;;;7.50;;
1128;SDS011;553;51.038;7.216;2023-07-20T04:24:15;12.53;;;6.57;;
1128;SDS011;553;51.038;7.216;2023-07-20T04:26:42;9.50;;;6.00;;
1128;SDS011;553;51.038;7.216;2023-07-20T04:29:09;9.43;;;6.40;;
1128;SDS011;553;51.038;7.216;2023-07-20T04:31:39;10.10;;;7.33;;
1128;SDS011;553;51.038;7.216;2023-07-20T04:34:05;9.33;;;6.73;;
1128;SDS011;553;51.038;7.216;2023-07-20T04:36:34;9.73;;;6.50;;
1128;SDS011;553;51.038;7.216;2023-07-20T04:39:01;12.33;;;7.03;;
1128;SDS011;553;51.038;7.216;2023-07-20T04:41:33;10.47;;;6.93;;
1128;SDS011;553;51.038;7.216;2023-07-20T04:44:00;12.53;;;6.83;;
1128;SDS011;553;51.038;7.216;2023-07-20T04:46:29;9.63;;;6.57;;
1128;SDS011;553;51.038;7.216;2023-07-20T04:48:57;9.87;;;7.03;;
1128;SDS011;553;51.038;7.216;2023-07-20T04:51:25;10.23;;;7.30;;
1128;SDS011;553;51.038;7.216;2023-07-20T04:53:54;10.87;;;6.67;;
1128;SDS011;553;51.038;7.216;2023-07-20T04:56:21;14.57;;;8.17;;
1128;SDS011;553;51.038;7.216;2023-07-20T04:58:51;15.30;;;6.43;;
1128;SDS011;553;51.038;7.216;2023-07-20T05:01:18;12.30;;;7.87;;
1128;SDS011;553;51.038;7.216;2023-07-20T05:03:44;11.80;;;7.27;;
1128;SDS011;553;51.038;7.216;2023-07-20T05:06:13;10.03;;;7.50;;
1128;SDS011;553;51.038;7.216;2023-07-20T05:08:41;12.20;;;8.10;;
1128;SDS011;553;51.038;7.216;2023-07-20T05:11:07;11.43;;;8.07;;
1128;SDS011;553;51.038;7.216;2023-07-20T05:13:34;11.23;;;7.00;;
1128;SDS011;553;51.038;7.216;2023-07-20T05:16:01;11.63;;;7.70;;
1128;SDS011;553;51.038;7.216;2023-07-20T05:18:29;9.87;;;7.90;;
1128;SDS011;553;51.038;7.216;2023-07-20T05:20:56;10.80;;;8.03;;
1128;SDS011;553;51.038;7.216;2023-07-20T05:23:23;9.37;;;7.90;;
1128;SDS011;553;51.038;7.216;2023-07-20T05:25:56;13.60;;;7.90;;
1128;SDS011;553;51.038;7.216;2023-07-20T05:28:24;12.50;;;7.27;;
1128;SDS011;553;51.038;7.216;2023-07-20T05:30:52;13.60;;;8.00;;
1128;SDS011;553;51.038;7.216;2023-07-20T05:33:20;10.20;;;8.10;;
1128;SDS011;553;51.038;7.216;2023-07-20T05:35:47;12.40;;;9.20;;
1128;SDS011;553;51.038;7.216;2023-07-20T05:38:14;16.27;;;9.80;;
1128;SDS011;553;51.038;7.216;2023-07-20T05:40:41;10.10;;;7.77;;
1128;SDS011;553;51.038;7.216;2023-07-20T05:43:11;13.80;;;9.50;;
1128;SDS011;553;51.038;7.216;2023-07-20T05:45:41;10.93;;;8.80;;
1128;SDS011;553;51.038;7.216;2023-07-20T05:48:09;11.83;;;8.53;;
1128;SDS011;553;51.038;7.216;2023-07-20T05:50:42;14.40;;;9.03;;
1128;SDS011;553;51.038;7.216;2023-07-20T05:53:10;15.70;;;9.50;;
1128;SDS011;553;51.038;7.216;2023-07-20T05:55:36;18.43;;;10.60;;
1128;SDS011;553;51.038;7.216;2023-07-20T05:58:04;13.67;;;9.53;;
1128;SDS011;553;51.038;7.216;2023-07-20T06:00:31;13.80;;;10.00;;
1128;SDS011;553;51.038;7.216;2023-07-20T06:02:58;14.57;;;10.73;;
1128;SDS011;553;51.038;7.216;2023-07-20T06:05:24;17.10;;;10.20;;
1128;SDS011;553;51.038;7.216;2023-07-20T06:07:54;16.53;;;10.53;;
1128;SDS011;553;51.038;7.216;2023-07-20T06:10:23;12.03;;;8.67;;
1128;SDS011;553;51.038;7.216;2023-07-20T06:12:50;19.80;;;14.30;;
1128;SDS011;553;51.038;7.216;2023-07-20T06:15:27;17.63;;;11.33;;
1128;SDS011;553;51.038;7.216;2023-07-20T06:17:57;17.07;;;12.47;;
1128;SDS011;553;51.038;7.216;2023-07-20T06:20:24;15.87;;;12.33;;
1128;SDS011;553;51.038;7.216;2023-07-20T06:22:52;16.23;;;14.47;;
1128;SDS011;553;51.038;7.216;2023-07-20T06:25:18;20.93;;;15.13;;
1128;SDS011;553;51.038;7.216;2023-07-20T06:27:49;16.83;;;14.70;;
1128;SDS011;553;51.038;7.216;2023-07-20T06:30:18;16.63;;;14.40;;
1128;SDS011;553;51.038;7.216;2023-07-20T06:32:45;18.63;;;15.40;;
1128;SDS011;553;51.038;7.216;2023-07-20T06:35:12;16.90;;;14.80;;
1128;SDS011;553;51.038;7.216;2023-07-20T06:37:38;16.97;;;15.03;;
1128;SDS011;553;51.038;7.216;2023-07-20T06:40:05;19.63;;;14.57;;
1128;SDS011;553;51.038;7.216;2023-07-20T06:42:38;17.80;;;15.90;;
1128;SDS011;553;51.038;7.216;2023-07-20T06:45:07;17.47;;;14.43;;
1128;SDS011;553;51.038;7.216;2023-07-20T06:47:35;17.30;;;15.03;;
1128;SDS011;553;51.038;7.216;2023-07-20T06:50:04;24.30;;;16.20;;
1128;SDS011;553;51.038;7.216;2023-07-20T06:52:32;19.03;;;16.40;;
1128;SDS011;553;51.038;7.216;2023-07-20T06:54:59;18.83;;;14.93;;
1128;SDS011;553;51.038;7.216;2023-07-20T06:57:31;17.73;;;14.40;;
1128;SDS011;553;51.038;7.216;2023-07-20T06:59:57;16.83;;;14.60;;
1128;SDS011;553;51.038;7.216;2023-07-20T07:02:24;14.33;;;12.93;;
1128;SDS011;553;51.038;7.216;2023-07-20T07:04:51;17.53;;;15.23;;
1128;SDS011;553;51.038;7.216;2023-07-20T07:07:26;17.47;;;14.30;;
1128;SDS011;553;51.038;7.216;2023-07-20T07:09:53;16.90;;;14.17;;
1128;SDS011;553;51.038;7.216;2023-07-20T07:12:20;13.80;;;11.70;;
1128;SDS011;553;51.038;7.216;2023-07-20T07:14:46;16.50;;;13.23;;
1128;SDS011;553;51.038;7.216;2023-07-20T07:17:13;14.73;;;13.20;;
1128;SDS011;553;51.038;7.216;2023-07-20T07:19:45;15.10;;;12.60;;
1128;SDS011;553;51.038;7.216;2023-07-20T07:22:14;12.10;;;10.73;;
1128;SDS011;553;51.038;7.216;2023-07-20T07:24:41;11.10;;;10.00;;
1128;SDS011;553;51.038;7.216;2023-07-20T07:27:08;12.43;;;11.17;;
1128;SDS011;553;51.038;7.216;2023-07-20T07:29:35;13.97;;;11.70;;
1128;SDS011;553;51.038;7.216;2023-07-20T07:32:02;13.97;;;12.43;;
1128;SDS011;553;51.038;7.216;2023-07-20T07:34:29;9.83;;;8.83;;
1128;SDS011;553;51.038;7.216;2023-07-20T07:36:56;11.37;;;8.93;;
1128;SDS011;553;51.038;7.216;2023-07-20T07:39:22;8.17;;;7.47;;
1128;SDS011;553;51.038;7.216;2023-07-20T07:41:53;9.53;;;8.60;;
1128;SDS011;553;51.038;7.216;2023-07-20T07:44:20;10.90;;;9.50;;
1128;SDS011;553;51.038;7.216;2023-07-20T07:46:47;10.00;;;7.33;;
1128;SDS011;553;51.038;7.216;2023-07-20T07:49:15;7.60;;;6.47;;
1128;SDS011;553;51.038;7.216;2023-07-20T07:51:42;10.10;;;8.20;;
1128;SDS011;553;51.038;7.216;2023-07-20T07:54:09;11.23;;;9.40;;
1128;SDS011;553;51.038;7.216;2023-07-20T07:56:36;8.70;;;7.90;;
1128;SDS011;553;51.038;7.216;2023-07-20T07:59:03;9.70;;;8.50;;
1128;SDS011;553;51.038;7.216;2023-07-20T08:01:30;9.60;;;8.70;;
1128;SDS011;553;51.038;7.216;2023-07-20T08:03:57;16.23;;;10.10;;
1128;SDS011;553;51.038;7.216;2023-07-20T08:06:24;10.63;;;9.53;;
1128;SDS011;553;51.038;7.216;2023-07-20T08:08:52;11.07;;;9.97;;
1128;SDS011;553;51.038;7.216;2023-07-20T08:11:19;8.77;;;7.80;;
1128;SDS011;553;51.038;7.216;2023-07-20T08:13:46;9.83;;;8.83;;
1128;SDS011;553;51.038;7.216;2023-07-20T08:16:13;9.00;;;8.20;;
1128;SDS011;553;51.038;7.216;2023-07-20T08:18:40;8.33;;;6.10;;
1128;SDS011;553;51.038;7.216;2023-07-20T08:21:07;7.00;;;6.30;;
1128;SDS011;553;51.038;7.216;2023-07-20T08:23:34;7.40;;;6.50;;
1128;SDS011;553;51.038;7.216;2023-07-20T08:26:01;7.17;;;6.37;;
1128;SDS011;553;51.038;7.216;2023-07-20T08:28:28;7.17;;;6.57;;
1128;SDS011;553;51.038;7.216;2023-07-20T08:30:55;9.90;;;6.50;;
1128;SDS011;553;51.038;7.216;2023-07-20T08:33:22;6.83;;;5.83;;
1128;SDS011;553;51.038;7.216;2023-07-20T08:35:50;6.90;;;6.20;;
1128;SDS011;553;51.038;7.216;2023-07-20T08:38:17;6.70;;;6.10;;
1128;SDS011;553;51.038;7.216;2023-07-20T08:40:47;6.30;;;5.70;;
1128;SDS011;553;51.038;7.216;2023-07-20T08:43:14;4.70;;;4.40;;
1128;SDS011;553;51.038;7.216;2023-07-20T08:45:45;4.30;;;3.00;;
1128;SDS011;553;51.038;7.216;2023-07-20T08:48:14;4.43;;;4.03;;
1128;SDS011;553;51.038;7.216;2023-07-20T08:50:43;5.17;;;4.67;;
1128;SDS011;553;51.038;7.216;2023-07-20T08:53:11;11.60;;;5.00;;
1128;SDS011;553;51.038;7.216;2023-07-20T08:55:39;5.43;;;4.37;;
1128;SDS011;553;51.038;7.216;2023-07-20T08:58:09;7.30;;;5.00;;
1128;SDS011;553;51.038;7.216;2023-07-20T09:00:38;6.30;;;4.30;;
1128;SDS011;553;51.038;7.216;2023-07-20T09:03:07;7.20;;;4.60;;
1128;SDS011;553;51.038;7.216;2023-07-20T09:05:35;5.33;;;4.53;;
1128;SDS011;553;51.038;7.216;2023-07-20T09:08:01;5.37;;;4.87;;
1128;SDS011;553;51.038;7.216;2023-07-20T09:10:29;5.57;;;5.00;;
1128;SDS011;553;51.038;7.216;2023-07-20T09:12:56;5.60;;;4.70;;
1128;SDS011;553;51.038;7.216;2023-07-20T09:15:23;5.03;;;4.63;;
1128;SDS011;553;51.038;7.216;2023-07-20T09:17:50;2.60;;;2.40;;
1128;SDS011;553;51.038;7.216;2023-07-20T09:20:20;3.33;;;2.80;;
1128;SDS011;553;51.038;7.216;2023-07-20T09:22:50;3.00;;;2.63;;
1128;SDS011;553;51.038;7.216;2023-07-20T09:25:18;3.80;;;2.87;;
1128;SDS011;553;51.038;7.216;2023-07-20T09:27:50;4.57;;;3.17;;
1128;SDS011;553;51.038;7.216;2023-07-20T09:30:18;3.00;;;2.50;;
1128;SDS011;553;51.038;7.216;2023-07-20T09:32:48;2.53;;;2.33;;
1128;SDS011;553;51.038;7.216;2023-07-20T09:35:20;4.70;;;2.50;;
1128;SDS011;553;51.038;7.216;2023-07-20T09:38:00;3.03;;;2.20;;
1128;SDS011;553;51.038;7.216;2023-07-20T09:40:30;3.60;;;2.20;;
1128;SDS011;553;51.038;7.216;2023-07-20T09:43:09;3.53;;;2.23;;
1128;SDS011;553;51.038;7.216;2023-07-20T09:45:40;3.03;;;2.00;;
1128;SDS011;553;51.038;7.216;2023-07-20T09:48:11;3.37;;;2.27;;
1128;SDS011;553;51.038;7.216;2023-07-20T09:50:43;2.50;;;1.83;;
1128;SDS011;553;51.038;7.216;2023-07-20T09:53:15;1.57;;;1.40;;
1128;SDS011;553;51.038;7.216;2023-07-20T09:55:44;3.37;;;2.20;;
1128;SDS011;553;51.038;7.216;2023-07-20T09:58:15;2.60;;;2.10;;
1128;SDS011;553;51.038;7.216;2023-07-20T10:00:43;2.70;;;2.20;;
1128;SDS011;553;51.038;7.216;2023-07-20T10:03:19;2.40;;;2.20;;
1128;SDS011;553;51.038;7.216;2023-07-20T10:05:48;2.20;;;1.80;;
1128;SDS011;553;51.038;7.216;2023-07-20T10:08:26;2.13;;;1.70;;
1128;SDS011;553;51.038;7.216;2023-07-20T10:10:59;3.07;;;1.87;;
1128;SDS011;553;51.038;7.216;2023-07-20T10:13:29;2.40;;;1.63;;
1128;SDS011;553;51.038;7.216;2023-07-20T10:15:59;2.77;;;1.70;;
1128;SDS011;553;51.038;7.216;2023-07-20T10:18:31;3.30;;;1.73;;
1128;SDS011;553;51.038;7.216;2023-07-20T10:21:04;3.80;;;1.87;;
1128;SDS011;553;51.038;7.216;2023-07-20T10:23:36;2.77;;;1.83;;
1128;SDS011;553;51.038;7.216;2023-07-20T10:26:05;1.70;;;1.60;;
1128;SDS011;553;51.038;7.216;2023-07-20T10:28:32;2.23;;;2.03;;
1128;SDS011;553;51.038;7.216;2023-07-20T10:30:59;3.10;;;2.00;;
1128;SDS011;553;51.038;7.216;2023-07-20T10:33:26;1.90;;;1.70;;
1128;SDS011;553;51.038;7.216;2023-07-20T10:35:54;2.03;;;1.70;;
1128;SDS011;553;51.038;7.216;2023-07-20T10:39:01;6.60;;;1.63;;
1128;SDS011;553;51.038;7.216;2023-07-20T10:41:32;2.07;;;1.87;;
1128;SDS011;553;51.038;7.216;2023-07-20T10:44:04;2.70;;;1.53;;
1128;SDS011;553;51.038;7.216;2023-07-20T10:49:06;1.37;;;1.10;;
1128;SDS011;553;51.038;7.216;2023-07-20T10:51:44;1.87;;;1.53;;
1128;SDS011;553;51.038;7.216;2023-07-20T10:56:49;9.00;;;3.13;;
1128;SDS011;553;51.038;7.216;2023-07-20T11:01:54;2.60;;;2.40;;
1128;SDS011;553;51.038;7.216;2023-07-20T11:04:37;5.63;;;2.13;;
1128;SDS011;553;51.038;7.216;2023-07-20T11:07:07;2.20;;;2.00;;
1128;SDS011;553;51.038;7.216;2023-07-20T11:09:34;2.20;;;2.10;;
1128;SDS011;553;51.038;7.216;2023-07-20T11:12:11;2.60;;;2.40;;
1128;SDS011;553;51.038;7.216;2023-07-20T11:14:41;1.60;;;1.33;;
1128;SDS011;553;51.038;7.216;2023-07-20T11:17:12;2.13;;;1.80;;
1128;SDS011;553;51.038;7.216;2023-07-20T11:19:40;2.27;;;2.03;;
1128;SDS011;553;51.038;7.216;2023-07-20T11:22:10;2.77;;;2.00;;
1128;SDS011;553;51.038;7.216;2023-07-20T11:24:40;3.40;;;1.87;;
1128;SDS011;553;51.038;7.216;2023-07-20T11:27:07;1.60;;;1.33;;
1128;SDS011;553;51.038;7.216;2023-07-20T11:29:34;7.23;;;3.00;;
1128;SDS011;553;51.038;7.216;2023-07-20T11:32:02;1.60;;;1.47;;
1128;SDS011;553;51.038;7.216;2023-07-20T11:34:31;1.83;;;1.50;;
1128;SDS011;553;51.038;7.216;2023-07-20T11:36:59;2.37;;;1.83;;
1128;SDS011;553;51.038;7.216;2023-07-20T11:39:29;2.00;;;1.50;;
1128;SDS011;553;51.038;7.216;2023-07-20T11:41:56;1.50;;;1.40;;
1128;SDS011;553;51.038;7.216;2023-07-20T11:44:24;1.50;;;1.40;;
1128;SDS011;553;51.038;7.216;2023-07-20T11:47:04;3.00;;;1.50;;
1128;SDS011;553;51.038;7.216;2023-07-20T11:49:35;2.70;;;1.53;;
1128;SDS011;553;51.038;7.216;2023-07-20T11:52:04;2.33;;;1.53;;
1128;SDS011;553;51.038;7.216;2023-07-20T11:54:35;2.07;;;1.87;;
1128;SDS011;553;51.038;7.216;2023-07-20T11:57:04;3.80;;;2.20;;
1128;SDS011;553;51.038;7.216;2023-07-20T11:59:32;2.80;;;2.60;;
1128;SDS011;553;51.038;7.216;2023-07-20T12:02:02;2.70;;;2.50;;
1128;SDS011;553;51.038;7.216;2023-07-20T12:04:33;5.00;;;3.60;;
1128;SDS011;553;51.038;7.216;2023-07-20T12:07:00;2.90;;;2.30;;
1128;SDS011;553;51.038;7.216;2023-07-20T12:09:27;2.37;;;2.17;;
1128;SDS011;553;51.038;7.216;2023-07-20T12:12:11;2.60;;;2.40;;
1128;SDS011;553;51.038;7.216;2023-07-20T12:14:38;2.57;;;2.37;;
1128;SDS011;553;51.038;7.216;2023-07-20T12:17:07;2.40;;;2.20;;
1128;SDS011;553;51.038;7.216;2023-07-20T12:19:37;3.10;;;2.70;;
1128;SDS011;553;51.038;7.216;2023-07-20T12:22:06;2.57;;;1.80;;
1128;SDS011;553;51.038;7.216;2023-07-20T12:24:33;1.90;;;1.60;;
1128;SDS011;553;51.038;7.216;2023-07-20T12:27:01;1.50;;;1.30;;
1128;SDS011;553;51.038;7.216;2023-07-20T12:29:28;2.80;;;1.47;;
1128;SDS011;553;51.038;7.216;2023-07-20T12:31:54;1.83;;;1.60;;
1128;SDS011;553;51.038;7.216;2023-07-20T12:34:21;2.30;;;1.60;;
1128;SDS011;553;51.038;7.216;2023-07-20T12:36:48;1.80;;;1.70;;
1128;SDS011;553;51.038;7.216;2023-07-20T12:39:15;2.87;;;2.00;;
1128;SDS011;553;51.038;7.216;2023-07-20T12:41:41;3.00;;;1.67;;
1128;SDS011;553;51.038;7.216;2023-07-20T12:44:08;1.50;;;1.40;;
1128;SDS011;553;51.038;7.216;2023-07-20T12:46:35;1.90;;;1.80;;
1128;SDS011;553;51.038;7.216;2023-07-20T12:49:03;1.70;;;1.40;;
1128;SDS011;553;51.038;7.216;2023-07-20T12:51:30;2.70;;;1.50;;
1128;SDS011;553;51.038;7.216;2023-07-20T12:53:57;1.93;;;1.60;;
1128;SDS011;553;51.038;7.216;2023-07-20T12:56:23;1.60;;;1.40;;
1128;SDS011;553;51.038;7.216;2023-07-20T12:58:53;1.70;;;1.40;;
1128;SDS011;553;51.038;7.216;2023-07-20T13:01:20;2.17;;;1.30;;
1128;SDS011;553;51.038;7.216;2023-07-20T13:03:47;1.43;;;1.10;;
1128;SDS011;553;51.038;7.216;2023-07-20T13:06:17;1.97;;;0.90;;
1128;SDS011;553;51.038;7.216;2023-07-20T13:08:46;3.03;;;1.10;;
1128;SDS011;553;51.038;7.216;2023-07-20T13:11:13;1.47;;;1.10;;
1128;SDS011;553;51.038;7.216;2023-07-20T13:13:40;4.43;;;1.10;;
1128;SDS011;553;51.038;7.216;2023-07-20T13:16:06;1.43;;;1.03;;
1128;SDS011;553;51.038;7.216;2023-07-20T13:18:33;1.87;;;1.00;;
1128;SDS011;553;51.038;7.216;2023-07-20T13:21:00;1.70;;;1.03;;
1128;SDS011;553;51.038;7.216;2023-07-20T13:23:28;2.20;;;1.17;;
1128;SDS011;553;51.038;7.216;2023-07-20T13:25:55;2.23;;;0.87;;
1128;SDS011;553;51.038;7.216;2023-07-20T13:28:22;3.83;;;1.20;;
1128;SDS011;553;51.038;7.216;2023-07-20T13:30:48;4.43;;;1.20;;
1128;SDS011;553;51.038;7.216;2023-07-20T13:33:15;1.23;;;0.80;;
1128;SDS011;553;51.038;7.216;2023-07-20T13:35:44;1.13;;;0.80;;
1128;SDS011;553;51.038;7.216;2023-07-20T13:38:13;1.43;;;0.80;;
1128;SDS011;553;51.038;7.216;2023-07-20T13:40:40;1.30;;;1.07;;
1128;SDS011;553;51.038;7.216;2023-07-20T13:43:08;1.13;;;0.83;;
1128;SDS011;553;51.038;7.216;2023-07-20T13:45:35;1.37;;;0.90;;
1128;SDS011;553;51.038;7.216;2023-07-20T13:48:02;1.60;;;0.73;;
1128;SDS011;553;51.038;7.216;2023-07-20T13:50:32;1.70;;;1.00;;
1128;SDS011;553;51.038;7.216;2023-07-20T13:53:01;6.30;;;1.50;;
1128;SDS011;553;51.038;7.216;2023-07-20T13:55:32;1.57;;;1.20;;
1128;SDS011;553;51.038;7.216;2023-07-20T13:58:02;1.03;;;0.90;;
1128;SDS011;553;51.038;7.216;2023-07-20T14:00:29;4.40;;;1.40;;
1128;SDS011;553;51.038;7.216;2023-07-20T14:03:00;2.20;;;0.97;;
1128;SDS011;553;51.038;7.216;2023-07-20T14:05:29;2.27;;;1.00;;
1128;SDS011;553;51.038;7.216;2023-07-20T14:07:59;1.17;;;0.73;;
1128;SDS011;553;51.038;7.216;2023-07-20T14:10:26;1.30;;;1.20;;
1128;SDS011;553;51.038;7.216;2023-07-20T14:12:52;1.73;;;1.00;;
1128;SDS011;553;51.038;7.216;2023-07-20T14:15:19;5.43;;;1.20;;
1128;SDS011;553;51.038;7.216;2023-07-20T14:17:46;1.80;;;1.03;;
1128;SDS011;553;51.038;7.216;2023-07-20T14:20:13;1.70;;;1.20;;
1128;SDS011;553;51.038;7.216;2023-07-20T14:22:42;2.03;;;1.03;;
1128;SDS011;553;51.038;7.216;2023-07-20T14:25:10;2.03;;;1.03;;
1128;SDS011;553;51.038;7.216;2023-07-20T14:27:37;1.60;;;0.90;;
1128;SDS011;553;51.038;7.216;2023-07-20T14:30:04;7.40;;;1.20;;
1128;SDS011;553;51.038;7.216;2023-07-20T14:32:31;1.83;;;1.27;;
1128;SDS011;553;51.038;7.216;2023-07-20T14:35:00;1.63;;;1.10;;
1128;SDS011;553;51.038;7.216;2023-07-20T14:37:26;1.50;;;0.90;;
1128;SDS011;553;51.038;7.216;2023-07-20T14:39:54;1.90;;;1.10;;
1128;SDS011;553;51.038;7.216;2023-07-20T14:42:21;2.67;;;1.20;;
1128;SDS011;553;51.038;7.216;2023-07-20T14:44:48;3.47;;;1.17;;
1128;SDS011;553;51.038;7.216;2023-07-20T14:47:15;2.23;;;1.30;;
1128;SDS011;553;51.038;7.216;2023-07-20T14:49:41;1.53;;;1.17;;
1128;SDS011;553;51.038;7.216;2023-07-20T14:52:08;3.10;;;1.27;;
1128;SDS011;553;51.038;7.216;2023-07-20T14:54:39;1.50;;;1.40;;
1128;SDS011;553;51.038;7.216;2023-07-20T14:57:05;1.20;;;1.10;;
1128;SDS011;553;51.038;7.216;2023-07-20T14:59:40;1.97;;;1.30;;
1128;SDS011;553;51.038;7.216;2023-07-20T15:02:10;1.50;;;1.10;;
1128;SDS011;553;51.038;7.216;2023-07-20T15:04:37;2.53;;;1.10;;
1128;SDS011;553;51.038;7.216;2023-07-20T15:07:11;2.43;;;1.20;;
1128;SDS011;553;51.038;7.216;2023-07-20T15:09:38;2.53;;;1.27;;
1128;SDS011;553;51.038;7.216;2023-07-20T15:12:05;2.17;;;1.20;;
1128;SDS011;553;51.038;7.216;2023-07-20T15:14:33;1.27;;;1.10;;
1128;SDS011;553;51.038;7.216;2023-07-20T15:16:59;3.13;;;1.20;;
1128;SDS011;553;51.038;7.216;2023-07-20T15:19:26;1.73;;;1.33;;
1128;SDS011;553;51.038;7.216;2023-07-20T15:21:54;1.60;;;1.40;;
1128;SDS011;553;51.038;7.216;2023-07-20T15:24:21;1.90;;;1.10;;
1128;SDS011;553;51.038;7.216;2023-07-20T15:26:48;2.17;;;1.27;;
1128;SDS011;553;51.038;7.216;2023-07-20T15:29:15;2.30;;;1.40;;
1128;SDS011;553;51.038;7.216;2023-07-20T15:31:44;1.60;;;1.00;;
1128;SDS011;553;51.038;7.216;2023-07-20T15:34:14;2.07;;;1.00;;
1128;SDS011;553;51.038;7.216;2023-07-20T15:36:41;1.83;;;1.20;;
1128;SDS011;553;51.038;7.216;2023-07-20T15:39:08;1.60;;;1.23;;
1128;SDS011;553;51.038;7.216;2023-07-20T15:41:35;1.10;;;0.80;;
1128;SDS011;553;51.038;7.216;2023-07-20T15:44:01;2.07;;;1.07;;
1128;SDS011;553;51.038;7.216;2023-07-20T15:46:43;1.57;;;1.10;;
1128;SDS011;553;51.038;7.216;2023-07-20T15:49:15;1.93;;;1.03;;
1128;SDS011;553;51.038;7.216;2023-07-20T15:51:41;2.47;;;1.37;;